createdAt,value
2022-12-14T00:01:27.885Z,-1.60
2022-12-14T00:03:56.116Z,-1.60
2022-12-14T00:06:28.091Z,-1.60
2022-12-14T00:08:58.663Z,-1.70
2022-12-14T00:11:26.061Z,-1.80
2022-12-14T00:13:54.736Z,-1.80
2022-12-14T00:16:22.341Z,-1.70
2022-12-14T00:18:52.492Z,-1.70
2022-12-14T00:21:20.181Z,-1.60
2022-12-14T00:23:48.592Z,-1.70
2022-12-14T00:26:20.822Z,-1.70
2022-12-14T00:28:49.452Z,-1.80
2022-12-14T00:31:16.760Z,-1.60
2022-12-14T00:33:44.312Z,-1.50
2022-12-14T00:36:12.625Z,-1.40
2022-12-14T00:38:40.441Z,-1.30
2022-12-14T00:41:07.667Z,-1.20
2022-12-14T00:43:34.406Z,-1.40
2022-12-14T00:46:01.131Z,-1.30
2022-12-14T00:48:28.640Z,-1.50
2022-12-14T00:50:56.287Z,-1.60
2022-12-14T00:53:24.201Z,-1.60
2022-12-14T00:55:51.396Z,-1.50
2022-12-14T00:58:21.205Z,-1.60
2022-12-14T01:00:58.220Z,-1.60
2022-12-14T01:03:25.207Z,-1.60
2022-12-14T01:05:52.309Z,-1.60
2022-12-14T01:08:20.539Z,-1.50
2022-12-14T01:10:47.276Z,-1.60
2022-12-14T01:13:13.991Z,-1.60
2022-12-14T01:15:40.731Z,-1.50
2022-12-14T01:18:07.516Z,-1.50
2022-12-14T01:20:34.160Z,-1.60
2022-12-14T01:23:00.796Z,-1.60
2022-12-14T01:25:27.479Z,-1.70
2022-12-14T01:27:54.295Z,-1.70
2022-12-14T01:30:21.119Z,-1.70
2022-12-14T01:32:47.809Z,-1.70
2022-12-14T01:35:14.719Z,-1.80
2022-12-14T01:37:41.395Z,-1.80
2022-12-14T01:40:08.638Z,-1.80
2022-12-14T01:42:36.834Z,-1.70
2022-12-14T01:45:05.717Z,-1.70
2022-12-14T01:47:44.518Z,-1.80
2022-12-14T01:50:16.731Z,-1.90
2022-12-14T01:52:46.962Z,-1.90
2022-12-14T01:55:28.527Z,-1.80
2022-12-14T01:58:02.941Z,-1.80
2022-12-14T02:00:29.973Z,-1.90
2022-12-14T02:03:12.196Z,-1.80
2022-12-14T02:05:51.509Z,-1.70
2022-12-14T02:08:20.645Z,-1.70
2022-12-14T02:10:49.409Z,-1.70
2022-12-14T02:13:31.452Z,-1.70
2022-12-14T02:15:58.264Z,-1.80
2022-12-14T02:18:27.813Z,-1.80
2022-12-14T02:21:16.273Z,-1.70
2022-12-14T02:24:09.412Z,-1.80
2022-12-14T02:27:04.262Z,-1.90
2022-12-14T02:29:45.953Z,-1.90
2022-12-14T02:32:48.638Z,-1.90
2022-12-14T02:35:25.792Z,-2.00
2022-12-14T02:38:01.473Z,-1.90
2022-12-14T02:40:48.403Z,-1.80
2022-12-14T02:43:32.861Z,-1.80
2022-12-14T02:46:23.576Z,-1.80
2022-12-14T02:49:10.732Z,-1.80
2022-12-14T02:52:34.774Z,-2.00
2022-12-14T02:55:18.198Z,-1.80
2022-12-14T02:57:58.462Z,-1.90
2022-12-14T03:00:25.764Z,-1.90
2022-12-14T03:02:53.387Z,-1.80
2022-12-14T03:05:20.124Z,-1.80
2022-12-14T03:08:14.353Z,-1.70
2022-12-14T03:11:04.390Z,-1.80
2022-12-14T03:13:39.535Z,-1.90
2022-12-14T03:16:21.723Z,-1.80
2022-12-14T03:19:07.429Z,-1.80
2022-12-14T03:21:53.637Z,-1.90
2022-12-14T03:24:27.157Z,-1.90
2022-12-14T03:27:01.233Z,-1.80
2022-12-14T03:29:38.722Z,-1.70
2022-12-14T03:32:19.095Z,-1.70
2022-12-14T03:35:13.610Z,-1.90
2022-12-14T03:37:43.021Z,-1.80
2022-12-14T03:40:13.334Z,-1.70
2022-12-14T03:42:49.577Z,-1.60
2022-12-14T03:45:30.242Z,-1.50
2022-12-14T03:48:05.870Z,-1.60
2022-12-14T03:50:41.286Z,-1.60
2022-12-14T03:53:20.570Z,-1.70
2022-12-14T03:56:03.089Z,-1.70
2022-12-14T03:58:42.375Z,-1.60
2022-12-14T04:01:27.198Z,-1.60
2022-12-14T04:04:10.072Z,-1.70
2022-12-14T04:06:36.671Z,-1.70
2022-12-14T04:09:17.366Z,-1.70
2022-12-14T04:12:10.610Z,-1.70
2022-12-14T04:15:05.425Z,-1.70
2022-12-14T04:17:54.403Z,-1.40
2022-12-14T04:20:41.221Z,-1.50
2022-12-14T04:23:15.570Z,-1.40
2022-12-14T04:26:05.150Z,-1.50
2022-12-14T04:29:03.486Z,-1.60
2022-12-14T04:31:32.728Z,-1.60
2022-12-14T04:34:04.367Z,-1.70
2022-12-14T04:36:48.999Z,-1.70
2022-12-14T04:39:21.050Z,-1.70
2022-12-14T04:41:51.874Z,-1.70
2022-12-14T04:44:40.440Z,-1.80
2022-12-14T04:47:11.235Z,-1.70
2022-12-14T04:49:59.620Z,-1.70
2022-12-14T04:52:40.798Z,-1.70
2022-12-14T04:55:21.565Z,-1.80
2022-12-14T04:58:00.829Z,-1.70
2022-12-14T05:00:34.810Z,-1.80
2022-12-14T05:03:19.863Z,-1.70
2022-12-14T05:06:45.487Z,-1.80
2022-12-14T05:09:17.868Z,-1.90
2022-12-14T05:11:54.972Z,-1.70
2022-12-14T05:14:31.757Z,-1.70
2022-12-14T05:17:01.270Z,-1.70
2022-12-14T05:19:30.162Z,-1.80
2022-12-14T05:21:56.995Z,-1.70
2022-12-14T05:24:23.701Z,-1.80
2022-12-14T05:26:50.394Z,-1.80
2022-12-14T05:29:17.753Z,-1.80
2022-12-14T05:31:49.380Z,-1.70
2022-12-14T05:34:16.846Z,-1.70
2022-12-14T05:36:43.597Z,-1.80
2022-12-14T05:39:10.291Z,-1.80
2022-12-14T05:41:37.043Z,-1.70
2022-12-14T05:44:03.862Z,-1.70
2022-12-14T05:46:30.533Z,-1.70
2022-12-14T05:48:57.278Z,-1.60
2022-12-14T05:51:24.549Z,-1.60
2022-12-14T05:53:51.330Z,-1.60
2022-12-14T05:56:17.974Z,-1.70
2022-12-14T05:58:44.611Z,-1.70
2022-12-14T06:01:18.554Z,-1.70
2022-12-14T06:03:45.830Z,-1.60
2022-12-14T06:06:13.868Z,-1.70
2022-12-14T06:08:43.306Z,-1.80
2022-12-14T06:11:12.448Z,-1.80
2022-12-14T06:13:40.633Z,-1.80
2022-12-14T06:16:28.237Z,-1.60
2022-12-14T06:18:57.018Z,-1.60
2022-12-14T06:21:27.058Z,-1.70
2022-12-14T06:23:55.542Z,-1.70
2022-12-14T06:26:23.515Z,-1.60
2022-12-14T06:28:50.510Z,-1.70
2022-12-14T06:31:20.152Z,-1.70
2022-12-14T06:33:47.605Z,-1.80
2022-12-14T06:36:23.958Z,-1.80
2022-12-14T06:38:51.731Z,-1.80
2022-12-14T06:41:19.267Z,-1.90
2022-12-14T06:43:49.267Z,-1.80
2022-12-14T06:46:19.364Z,-1.80
2022-12-14T06:48:50.873Z,-1.70
2022-12-14T06:51:17.711Z,-1.70
2022-12-14T06:53:44.679Z,-1.80
2022-12-14T06:56:14.601Z,-1.70
2022-12-14T06:58:42.084Z,-1.60
2022-12-14T07:01:13.212Z,-1.70
2022-12-14T07:03:41.334Z,-1.90
2022-12-14T07:06:08.661Z,-1.80
2022-12-14T07:08:37.128Z,-1.80
2022-12-14T07:11:05.873Z,-1.80
2022-12-14T07:13:33.066Z,-1.90
2022-12-14T07:16:00.885Z,-1.80
2022-12-14T07:18:28.206Z,-1.90
2022-12-14T07:21:16.010Z,-1.80
2022-12-14T07:23:44.214Z,-1.60
2022-12-14T07:26:13.970Z,-1.60
2022-12-14T07:28:41.468Z,-1.60
2022-12-14T07:31:12.455Z,-1.70
2022-12-14T07:33:39.290Z,-1.80
2022-12-14T07:36:07.469Z,-1.70
2022-12-14T07:38:35.976Z,-1.60
2022-12-14T07:41:03.809Z,-1.60
2022-12-14T07:43:30.752Z,-1.70
2022-12-14T07:46:02.732Z,-1.60
2022-12-14T07:48:30.426Z,-1.70
2022-12-14T07:51:08.577Z,-1.60
2022-12-14T07:53:36.944Z,-1.60
2022-12-14T07:56:09.598Z,-1.50
2022-12-14T07:58:37.572Z,-1.20
2022-12-14T08:01:09.481Z,-1.20
2022-12-14T08:03:36.999Z,-1.30
2022-12-14T08:06:05.532Z,-1.30
2022-12-14T08:08:32.996Z,-1.30
2022-12-14T08:11:00.103Z,-1.30
2022-12-14T08:13:27.269Z,-1.30
2022-12-14T08:15:54.516Z,-1.40
2022-12-14T08:18:21.563Z,-1.30
2022-12-14T08:20:53.410Z,-1.30
2022-12-14T08:23:20.282Z,-1.30
2022-12-14T08:25:56.417Z,-1.20
2022-12-14T08:28:23.659Z,-1.30
2022-12-14T08:30:51.429Z,-1.30
2022-12-14T08:33:19.405Z,-1.30
2022-12-14T08:35:46.371Z,-1.20
2022-12-14T08:38:13.292Z,-1.20
2022-12-14T08:40:40.395Z,-1.20
2022-12-14T08:43:09.072Z,-1.20
2022-12-14T08:45:36.125Z,-1.10
2022-12-14T08:48:02.949Z,-1.20
2022-12-14T08:50:29.654Z,-1.20
2022-12-14T08:52:56.347Z,-1.10
2022-12-14T08:55:28.227Z,-1.10
2022-12-14T08:57:55.994Z,-1.00
2022-12-14T09:00:22.893Z,-1.30
2022-12-14T09:02:51.028Z,-1.30
2022-12-14T09:05:17.949Z,-1.20
2022-12-14T09:07:44.755Z,-1.20
2022-12-14T09:10:11.551Z,-1.20
2022-12-14T09:12:39.397Z,-1.30
2022-12-14T09:15:07.101Z,-1.30
2022-12-14T09:17:34.449Z,-1.30
2022-12-14T09:20:01.142Z,-1.40
2022-12-14T09:22:29.251Z,-1.30
2022-12-14T09:24:55.961Z,-1.20
2022-12-14T09:27:22.782Z,-1.20
2022-12-14T09:29:52.466Z,-1.20
2022-12-14T09:32:19.177Z,-1.10
2022-12-14T09:34:45.856Z,-1.20
2022-12-14T09:37:12.840Z,-1.20
2022-12-14T09:39:39.725Z,-1.20
2022-12-14T09:42:29.544Z,-1.20
2022-12-14T09:45:07.122Z,-1.20
2022-12-14T09:47:58.135Z,-1.10
2022-12-14T09:50:25.406Z,-1.10
2022-12-14T09:52:59.185Z,-1.10
2022-12-14T09:55:38.143Z,-1.10
2022-12-14T09:58:20.805Z,-0.90
2022-12-14T10:01:08.900Z,-0.90
2022-12-14T10:04:12.714Z,-1.10
2022-12-14T10:07:00.984Z,-1.00
2022-12-14T10:09:55.761Z,-1.10
2022-12-14T10:12:34.405Z,-1.10
2022-12-14T10:15:10.255Z,-1.10
2022-12-14T10:17:48.799Z,-1.10
2022-12-14T10:20:22.234Z,-1.20
2022-12-14T10:22:52.647Z,-1.30
2022-12-14T10:25:22.624Z,-1.20
2022-12-14T10:28:12.720Z,-1.30
2022-12-14T10:30:42.456Z,-1.30
2022-12-14T10:33:17.287Z,-1.20
2022-12-14T10:35:53.245Z,-1.20
2022-12-14T10:38:34.947Z,-1.20
2022-12-14T10:41:25.972Z,-1.00
2022-12-14T10:44:12.230Z,-1.00
2022-12-14T10:47:04.953Z,-1.00
2022-12-14T10:49:42.381Z,-0.90
2022-12-14T10:52:18.578Z,-1.10
2022-12-14T10:54:52.812Z,-1.10
2022-12-14T10:57:22.291Z,-1.10
2022-12-14T11:00:05.722Z,-1.00
2022-12-14T11:02:40.067Z,-1.10
2022-12-14T11:05:51.041Z,-0.90
2022-12-14T11:08:41.512Z,-0.70
2022-12-14T11:11:25.896Z,-0.80
2022-12-14T11:14:07.957Z,-0.90
2022-12-14T11:16:39.824Z,-0.80
2022-12-14T11:19:18.187Z,-0.80
2022-12-14T11:21:46.165Z,-0.80
2022-12-14T11:24:28.278Z,-0.80
2022-12-14T11:27:00.747Z,-1.00
2022-12-14T11:29:30.492Z,-1.10
2022-12-14T11:31:57.531Z,-1.00
2022-12-14T11:34:38.884Z,-0.90
2022-12-14T11:37:23.447Z,-1.10
2022-12-14T11:40:05.261Z,-1.00
2022-12-14T11:42:33.232Z,-0.90
2022-12-14T11:45:26.064Z,-1.00
2022-12-14T11:48:14.762Z,-1.20
2022-12-14T11:50:42.911Z,-1.10
2022-12-14T11:53:15.177Z,-1.20
2022-12-14T11:56:02.011Z,-1.10
2022-12-14T11:58:33.190Z,-1.20
2022-12-14T12:01:14.598Z,-1.20
2022-12-14T12:03:54.291Z,-1.30
2022-12-14T12:06:29.825Z,-1.10
2022-12-14T12:09:02.584Z,-1.10
2022-12-14T12:11:34.180Z,-0.90
2022-12-14T12:14:19.494Z,-0.80
2022-12-14T12:16:46.280Z,-0.80
2022-12-14T12:19:20.120Z,-0.90
2022-12-14T12:21:47.383Z,-1.00
2022-12-14T12:24:30.460Z,-0.90
2022-12-14T12:27:00.135Z,-0.90
2022-12-14T12:29:26.946Z,-1.00
2022-12-14T12:32:08.911Z,-1.00
2022-12-14T12:34:45.932Z,-1.10
2022-12-14T12:37:31.526Z,-0.70
2022-12-14T12:40:09.959Z,-0.80
2022-12-14T12:42:53.044Z,-0.80
2022-12-14T12:45:57.105Z,-0.60
2022-12-14T12:48:33.543Z,-1.00
2022-12-14T12:51:13.188Z,-0.70
2022-12-14T12:53:48.085Z,-0.50
2022-12-14T12:56:22.572Z,-0.50
2022-12-14T12:58:53.140Z,-0.80
2022-12-14T13:01:43.907Z,-0.90
2022-12-14T13:04:23.284Z,-0.80
2022-12-14T13:06:59.358Z,-1.10
2022-12-14T13:09:49.411Z,-0.80
2022-12-14T13:12:39.360Z,-0.90
2022-12-14T13:15:19.136Z,-0.80
2022-12-14T13:17:53.640Z,-0.90
2022-12-14T13:20:30.625Z,-0.90
2022-12-14T13:23:05.775Z,-0.90
2022-12-14T13:26:23.374Z,-1.00
2022-12-14T13:29:13.558Z,-1.00
2022-12-14T13:31:51.720Z,-0.80
2022-12-14T13:34:25.628Z,-0.80
2022-12-14T13:37:10.965Z,-0.60
2022-12-14T13:39:58.463Z,-0.70
2022-12-14T13:42:33.152Z,-0.80
2022-12-14T13:45:13.667Z,-0.60
2022-12-14T13:47:45.327Z,-0.80
2022-12-14T13:50:59.311Z,-0.90
2022-12-14T13:53:48.556Z,-0.80
2022-12-14T13:56:31.064Z,-0.50
2022-12-14T13:59:01.602Z,-0.60
2022-12-14T14:02:03.439Z,-0.80
2022-12-14T14:04:32.209Z,-0.70
2022-12-14T14:07:23.809Z,-0.80
2022-12-14T14:10:00.367Z,-0.60
2022-12-14T14:12:39.892Z,-0.60
2022-12-14T14:15:30.706Z,-0.70
2022-12-14T14:18:07.022Z,-0.60
2022-12-14T14:20:46.744Z,-0.50
2022-12-14T14:23:16.590Z,-0.60
2022-12-14T14:25:49.067Z,-0.60
2022-12-14T14:28:22.480Z,-0.70
2022-12-14T14:30:51.555Z,-0.80
2022-12-14T14:33:47.552Z,-0.90
2022-12-14T14:36:24.827Z,-1.00
2022-12-14T14:38:54.219Z,-0.80
2022-12-14T14:41:51.840Z,-0.60
2022-12-14T14:44:35.837Z,-0.90
2022-12-14T14:47:07.533Z,-0.80
2022-12-14T14:49:39.276Z,-0.80
2022-12-14T14:52:40.290Z,-0.80
2022-12-14T14:55:51.869Z,-0.80
2022-12-14T14:58:26.204Z,-0.90
2022-12-14T15:01:06.848Z,-0.90
2022-12-14T15:04:02.127Z,-0.80
2022-12-14T15:06:51.116Z,-0.70
2022-12-14T15:09:31.819Z,-0.60
2022-12-14T15:12:20.031Z,-0.80
2022-12-14T15:14:52.977Z,-0.90
2022-12-14T15:17:21.684Z,-0.90
2022-12-14T15:19:49.407Z,-0.90
2022-12-14T15:22:19.664Z,-0.80
2022-12-14T15:24:49.592Z,-0.70
2022-12-14T15:27:37.159Z,-0.80
2022-12-14T15:30:24.630Z,-0.90
2022-12-14T15:33:02.358Z,-0.80
2022-12-14T15:35:32.915Z,-0.80
2022-12-14T15:38:08.873Z,-0.70
2022-12-14T15:40:36.174Z,-0.70
2022-12-14T15:43:18.144Z,-0.70
2022-12-14T15:45:48.479Z,-0.70
2022-12-14T15:48:30.357Z,-0.70
2022-12-14T15:51:11.081Z,-0.70
2022-12-14T15:53:42.513Z,-0.60
2022-12-14T15:56:19.361Z,-0.70
2022-12-14T15:58:46.426Z,-0.70
2022-12-14T16:01:25.760Z,-0.60
2022-12-14T16:03:55.816Z,-0.50
2022-12-14T16:06:26.329Z,-0.40
2022-12-14T16:09:16.122Z,-0.60
2022-12-14T16:11:46.459Z,-0.70
2022-12-14T16:14:36.546Z,-0.60
2022-12-14T16:17:04.250Z,-0.40
2022-12-14T16:19:57.590Z,-0.40
2022-12-14T16:22:32.379Z,-0.50
2022-12-14T16:25:08.332Z,-0.30
2022-12-14T16:27:44.687Z,-0.40
2022-12-14T16:30:21.888Z,-0.50
2022-12-14T16:32:52.153Z,-0.50
2022-12-14T16:35:24.784Z,-0.50
2022-12-14T16:37:55.748Z,-0.60
2022-12-14T16:40:34.795Z,-0.60
2022-12-14T16:43:02.983Z,-0.60
2022-12-14T16:45:35.870Z,-0.60
2022-12-14T16:48:13.342Z,-0.60
2022-12-14T16:50:56.702Z,-0.50
2022-12-14T16:53:29.830Z,-0.50
2022-12-14T16:56:04.385Z,-0.60
2022-12-14T16:58:31.548Z,-0.60
2022-12-14T17:01:04.394Z,-0.60
2022-12-14T17:03:32.124Z,-0.70
2022-12-14T17:06:03.208Z,-0.60
2022-12-14T17:08:30.972Z,-0.50
2022-12-14T17:10:58.954Z,-0.50
2022-12-14T17:13:25.715Z,-0.60
2022-12-14T17:16:04.411Z,-0.60
2022-12-14T17:18:41.720Z,-0.60
2022-12-14T17:21:21.980Z,-0.50
2022-12-14T17:23:48.874Z,-0.60
2022-12-14T17:26:27.827Z,-0.50
2022-12-14T17:28:55.300Z,-0.50
2022-12-14T17:31:25.113Z,-0.60
2022-12-14T17:33:53.280Z,-0.60
2022-12-14T17:36:20.037Z,-0.60
2022-12-14T17:38:46.793Z,-0.60
2022-12-14T17:41:26.690Z,-0.60
2022-12-14T17:43:57.639Z,-0.50
2022-12-14T17:46:25.447Z,-0.40
2022-12-14T17:48:52.563Z,-0.50
2022-12-14T17:51:25.954Z,-0.50
2022-12-14T17:53:55.607Z,-0.60
2022-12-14T17:56:22.376Z,-0.50
2022-12-14T17:58:50.065Z,-0.40
2022-12-14T18:01:23.024Z,-0.40
2022-12-14T18:03:50.820Z,-0.60
2022-12-14T18:06:18.742Z,-0.50
2022-12-14T18:08:46.138Z,-0.40
2022-12-14T18:11:19.443Z,-0.50
2022-12-14T18:13:47.360Z,-0.50
2022-12-14T18:16:17.997Z,-0.60
2022-12-14T18:18:46.073Z,-0.60
2022-12-14T18:21:22.353Z,-0.60
2022-12-14T18:23:50.487Z,-0.60
2022-12-14T18:26:22.104Z,-0.50
2022-12-14T18:28:50.750Z,-0.50
2022-12-14T18:31:36.017Z,-0.50
2022-12-14T18:34:03.500Z,-0.50
2022-12-14T18:36:30.711Z,-0.60
2022-12-14T18:38:57.791Z,-0.70
2022-12-14T18:41:26.407Z,-0.60
2022-12-14T18:43:54.427Z,-0.40
2022-12-14T18:46:21.658Z,-0.60
2022-12-14T18:48:48.928Z,-0.60
2022-12-14T18:51:26.081Z,-0.60
2022-12-14T18:53:54.951Z,-0.50
2022-12-14T18:56:23.280Z,-0.60
2022-12-14T18:58:50.309Z,-0.60
2022-12-14T19:01:21.008Z,-0.60
2022-12-14T19:03:48.606Z,-0.40
2022-12-14T19:09:05.036Z,-0.40
2022-12-14T19:11:34.428Z,-0.50
2022-12-14T19:14:02.023Z,-0.40
2022-12-14T19:16:28.896Z,-0.40
2022-12-14T19:18:55.721Z,-0.40
2022-12-14T19:21:25.277Z,-0.50
2022-12-14T19:23:52.296Z,-0.30
2022-12-14T19:26:19.070Z,-0.40
2022-12-14T19:28:45.744Z,-0.50
2022-12-14T19:31:12.840Z,-0.40
2022-12-14T19:33:39.593Z,-0.30
2022-12-14T19:36:08.277Z,-0.30
2022-12-14T19:38:36.927Z,-0.30
2022-12-14T19:41:07.598Z,-0.40
2022-12-14T19:43:35.284Z,-0.40
2022-12-14T19:46:06.463Z,-0.30
2022-12-14T19:48:33.275Z,-0.40
2022-12-14T19:51:07.146Z,-0.50
2022-12-14T19:53:34.884Z,-0.50
2022-12-14T19:56:01.775Z,-0.50
2022-12-14T19:58:28.833Z,-0.40
2022-12-14T20:00:56.187Z,-0.40
2022-12-14T20:03:23.456Z,-0.40
2022-12-14T20:05:55.703Z,-0.40
2022-12-14T20:08:23.216Z,-0.40
2022-12-14T20:10:52.513Z,-0.50
2022-12-14T20:13:20.078Z,-0.50
2022-12-14T20:15:55.513Z,-0.50
2022-12-14T20:18:22.771Z,-0.50
2022-12-14T20:20:50.734Z,-0.50
2022-12-14T20:23:20.436Z,-0.40
2022-12-14T20:25:47.400Z,-0.50
2022-12-14T20:28:14.424Z,-0.40
2022-12-14T20:30:46.665Z,-0.50
2022-12-14T20:33:14.092Z,-0.50
2022-12-14T20:35:40.756Z,-0.60
2022-12-14T20:38:07.797Z,-0.60
2022-12-14T20:40:38.630Z,-0.50
2022-12-14T20:43:06.378Z,-0.50
2022-12-14T20:45:38.130Z,-0.50
2022-12-14T20:48:05.727Z,-0.60
2022-12-14T20:50:32.591Z,-0.60
2022-12-14T20:52:59.239Z,-0.60
2022-12-14T20:55:26.040Z,-0.50
2022-12-14T20:57:52.686Z,-0.50
2022-12-14T21:00:19.528Z,-0.50
2022-12-14T21:02:46.252Z,-0.50
2022-12-14T21:05:13.215Z,-0.60
2022-12-14T21:07:40.018Z,-0.60
2022-12-14T21:10:07.423Z,-0.60
2022-12-14T21:12:34.497Z,-0.60
2022-12-14T21:15:01.590Z,-0.60
2022-12-14T21:17:30.305Z,-0.60
2022-12-14T21:19:57.810Z,-0.50
2022-12-14T21:22:27.461Z,-0.60
2022-12-14T21:25:03.694Z,-0.60
2022-12-14T21:27:32.501Z,-0.60
2022-12-14T21:30:00.525Z,-0.60
2022-12-14T21:32:27.502Z,-0.60
2022-12-14T21:34:54.178Z,-0.50
2022-12-14T21:37:21.061Z,-0.70
2022-12-14T21:39:54.447Z,-0.60
2022-12-14T21:42:23.763Z,-0.60
2022-12-14T21:44:51.834Z,-0.50
2022-12-14T21:47:21.597Z,-0.60
2022-12-14T21:49:48.637Z,-0.60
2022-12-14T21:52:18.021Z,-0.60
2022-12-14T21:54:44.976Z,-0.60
2022-12-14T21:57:34.788Z,-0.60
2022-12-14T22:00:02.095Z,-0.50
2022-12-14T22:02:29.202Z,-0.40
2022-12-14T22:04:56.375Z,-0.50
2022-12-14T22:07:28.837Z,-0.50
2022-12-14T22:09:55.480Z,-0.60
2022-12-14T22:12:22.146Z,-0.60
2022-12-14T22:14:49.679Z,-0.50
2022-12-14T22:17:16.620Z,-0.60
2022-12-14T22:19:43.357Z,-0.60
2022-12-14T22:22:14.971Z,-0.50
2022-12-14T22:24:41.724Z,-0.60
2022-12-14T22:27:12.610Z,-0.70
2022-12-14T22:29:39.580Z,-0.50
2022-12-14T22:32:07.383Z,-0.60
2022-12-14T22:34:34.544Z,-0.60
2022-12-14T22:37:01.686Z,-0.40
2022-12-14T22:39:28.859Z,-0.40
2022-12-14T22:41:55.689Z,-0.30
2022-12-14T22:44:22.391Z,-0.40
2022-12-14T22:46:49.899Z,-0.50
2022-12-14T22:49:18.976Z,-0.50
2022-12-14T22:51:45.778Z,-0.40
2022-12-14T22:54:22.368Z,-0.50
2022-12-14T22:56:56.709Z,-0.80
2022-12-14T22:59:48.114Z,-0.60
2022-12-14T23:02:14.960Z,-0.60
2022-12-14T23:04:41.856Z,-0.90
2022-12-14T23:07:08.825Z,-0.80
2022-12-14T23:09:54.017Z,-0.60
2022-12-14T23:12:40.151Z,-0.80
2022-12-14T23:15:25.943Z,-0.80
2022-12-14T23:18:23.202Z,-0.80
2022-12-14T23:21:08.625Z,-0.80
2022-12-14T23:23:56.208Z,-0.80
2022-12-14T23:26:41.610Z,-0.90
2022-12-14T23:29:27.076Z,-0.80
2022-12-14T23:32:12.502Z,-0.80
2022-12-14T23:34:57.811Z,-0.90
2022-12-14T23:37:43.527Z,-0.70
2022-12-14T23:40:29.495Z,-0.80
2022-12-14T23:43:14.949Z,-0.90
2022-12-14T23:46:01.695Z,-0.90
2022-12-14T23:48:46.923Z,-0.90
2022-12-14T23:51:32.338Z,-0.80
2022-12-14T23:54:17.676Z,-0.90
2022-12-14T23:57:03.163Z,-0.70
2022-12-14T23:59:49.662Z,-0.90
